Time;durP1;ratioP1;P1;durP2;ratioP2;P2;SDS_P1;SDS_P2;PMS_P1;PMS_P2;Temp;Humidity;BMP_temperature;BMP_pressure;BME280_temperature;BME280_humidity;BME280_pressure;Samples;Min_cycle;Max_cycle;Signal;HPM_P1;HPM_P2
2022/07/10 00:01:51;;;;;;;7.40;2.05;;;15.30;99.90;;;;;;5039952;28;20434;-63
2022/07/10 00:04:16;;;;;;;4.40;2.20;;;15.30;99.90;;;;;;5031962;28;20119;-63
2022/07/10 00:06:46;;;;;;;5.20;1.60;;;15.20;99.90;;;;;;5040972;28;20091;-63
2022/07/10 00:09:13;;;;;;;3.50;1.80;;;15.20;99.90;;;;;;5032168;28;21662;-63
2022/07/10 00:11:39;;;;;;;2.72;1.50;;;15.20;99.90;;;;;;5032335;28;20029;-62
2022/07/10 00:14:04;;;;;;;3.40;1.50;;;15.10;99.90;;;;;;5038781;28;20066;-64
2022/07/10 00:16:30;;;;;;;5.05;1.70;;;15.10;99.90;;;;;;5034879;28;20371;-64
2022/07/10 00:18:56;;;;;;;2.95;1.45;;;15.10;99.90;;;;;;5038612;28;20370;-63
2022/07/10 00:21:21;;;;;;;6.30;1.70;;;15.10;99.90;;;;;;5033746;28;20037;-63
2022/07/10 00:23:47;;;;;;;4.68;1.75;;;15.00;99.90;;;;;;5043144;28;20029;-63
2022/07/10 00:26:12;;;;;;;3.63;1.75;;;15.00;99.90;;;;;;5034485;28;20037;-62
2022/07/10 00:28:38;;;;;;;5.47;1.73;;;15.00;99.90;;;;;;5036722;28;20436;-63
2022/07/10 00:31:04;;;;;;;4.45;2.28;;;15.00;99.90;;;;;;5036583;28;20120;-63
2022/07/10 00:33:31;;;;;;;6.65;2.17;;;15.00;99.90;;;;;;5039401;28;20385;-63
2022/07/10 00:35:58;;;;;;;6.97;3.97;;;14.80;99.90;;;;;;5035287;28;20716;-63
2022/07/10 00:38:24;;;;;;;7.80;3.63;;;14.70;99.90;;;;;;5030211;28;20436;-63
2022/07/10 00:40:50;;;;;;;6.38;3.53;;;14.70;99.90;;;;;;5032075;28;20469;-63
2022/07/10 00:43:16;;;;;;;4.75;2.75;;;14.60;99.90;;;;;;5045963;28;20040;-63
2022/07/10 00:45:41;;;;;;;5.75;2.63;;;14.60;99.90;;;;;;5040047;28;20052;-63
2022/07/10 00:48:09;;;;;;;3.92;2.22;;;14.70;99.90;;;;;;5034130;28;20108;-63
2022/07/10 00:50:34;;;;;;;6.57;2.65;;;14.60;99.90;;;;;;5029928;28;20104;-63
2022/07/10 00:53:02;;;;;;;4.13;2.45;;;14.50;99.90;;;;;;5029018;28;20112;-63
2022/07/10 00:55:28;;;;;;;8.55;3.28;;;14.50;99.90;;;;;;5037441;28;20033;-64
2022/07/10 00:57:55;;;;;;;7.07;3.13;;;14.40;99.90;;;;;;5035294;28;20026;-63
2022/07/10 01:00:21;;;;;;;4.70;3.90;;;14.40;99.90;;;;;;5030934;28;20381;-63
2022/07/10 01:02:47;;;;;;;7.95;4.03;;;14.30;99.90;;;;;;5027066;28;20029;-63
2022/07/10 01:05:13;;;;;;;4.97;2.85;;;14.20;99.90;;;;;;5025696;28;20112;-63
2022/07/10 01:07:39;;;;;;;7.53;3.20;;;14.20;99.90;;;;;;5027881;28;20068;-63
2022/07/10 01:10:06;;;;;;;8.10;3.58;;;14.20;99.90;;;;;;5031146;28;20032;-63
2022/07/10 01:12:32;;;;;;;9.07;3.75;;;14.10;99.90;;;;;;5035678;28;20411;-63
2022/07/10 01:14:58;;;;;;;5.18;3.50;;;14.10;99.90;;;;;;5038878;28;20029;-64
2022/07/10 01:17:25;;;;;;;5.15;3.10;;;14.00;99.90;;;;;;5036360;28;20029;-64
2022/07/10 01:19:50;;;;;;;8.13;3.33;;;14.00;99.90;;;;;;5036605;28;20042;-65
2022/07/10 01:22:16;;;;;;;5.50;3.22;;;14.00;99.90;;;;;;5036036;28;20021;-64
2022/07/10 01:24:43;;;;;;;5.82;2.88;;;14.10;99.90;;;;;;5030318;28;20163;-63
2022/07/10 01:27:08;;;;;;;4.40;2.92;;;14.10;99.90;;;;;;5036947;28;20029;-64
2022/07/10 01:29:35;;;;;;;3.85;2.25;;;14.10;99.90;;;;;;5033680;28;20491;-63
2022/07/10 01:32:01;;;;;;;4.70;2.45;;;14.10;99.90;;;;;;5033442;28;20106;-62
2022/07/10 01:34:27;;;;;;;6.55;2.70;;;14.10;99.90;;;;;;5030565;28;20069;-63
2022/07/10 01:36:53;;;;;;;5.90;2.65;;;14.00;99.90;;;;;;5031658;28;20063;-63
2022/07/10 01:39:19;;;;;;;4.55;2.42;;;13.90;99.90;;;;;;5035617;28;20065;-63
2022/07/10 01:41:45;;;;;;;4.03;2.42;;;13.90;99.90;;;;;;5031006;28;20030;-63
2022/07/10 01:44:10;;;;;;;6.93;2.85;;;13.80;99.90;;;;;;5032950;28;20112;-62
2022/07/10 01:46:43;;;;;;;5.38;2.65;;;13.80;99.90;;;;;;5029462;28;20551;-63
2022/07/10 01:49:09;;;;;;;4.55;2.70;;;13.80;99.90;;;;;;5030644;28;20025;-62
2022/07/10 01:51:34;;;;;;;4.45;2.50;;;13.80;99.90;;;;;;5041958;28;20374;-62
2022/07/10 01:54:00;;;;;;;4.25;3.22;;;13.70;99.90;;;;;;5031279;28;20064;-62
2022/07/10 01:56:26;;;;;;;5.13;2.63;;;13.70;99.90;;;;;;5039937;28;20109;-62
2022/07/10 01:58:51;;;;;;;3.95;2.33;;;13.70;99.90;;;;;;5034436;28;20064;-63
2022/07/10 02:01:17;;;;;;;4.47;2.55;;;13.70;99.90;;;;;;5032960;28;20040;-63
2022/07/10 02:06:27;;;;;;;2.38;1.98;;;13.60;99.90;;;;;;5036167;28;20048;-63
2022/07/10 02:08:52;;;;;;;4.72;2.17;;;13.60;99.90;;;;;;5030684;28;20025;-63
2022/07/10 02:11:18;;;;;;;4.38;2.28;;;13.60;99.90;;;;;;5033170;28;20026;-63
2022/07/10 02:13:44;;;;;;;7.25;2.58;;;13.60;99.90;;;;;;5030481;28;20032;-63
2022/07/10 02:16:10;;;;;;;4.15;2.88;;;13.60;99.90;;;;;;5035246;28;20581;-63
2022/07/10 02:18:36;;;;;;;2.42;1.88;;;13.60;99.90;;;;;;5039578;28;20477;-63
2022/07/10 02:21:02;;;;;;;4.20;2.13;;;13.70;99.90;;;;;;5040828;28;20041;-63
2022/07/10 02:23:28;;;;;;;3.40;2.45;;;13.60;99.90;;;;;;5036014;28;20063;-63
2022/07/10 02:25:54;;;;;;;3.08;1.90;;;13.60;99.90;;;;;;5031545;28;20041;-63
2022/07/10 02:28:19;;;;;;;3.97;2.00;;;13.60;99.90;;;;;;5034897;28;20088;-63
2022/07/10 02:30:45;;;;;;;5.28;1.95;;;13.40;99.90;;;;;;5028047;28;20116;-63
2022/07/10 02:33:10;;;;;;;5.90;2.58;;;13.40;99.90;;;;;;5023481;28;20351;-62
2022/07/10 02:35:36;;;;;;;5.80;2.33;;;13.40;99.90;;;;;;5032095;28;20040;-63
2022/07/10 02:38:02;;;;;;;3.05;1.77;;;13.40;99.90;;;;;;5028315;28;20025;-64
2022/07/10 02:40:28;;;;;;;2.05;1.13;;;13.40;99.90;;;;;;5033720;28;20376;-63
2022/07/10 02:42:53;;;;;;;4.30;1.35;;;13.50;99.90;;;;;;5011672;28;20088;-62
2022/07/10 02:45:19;;;;;;;4.40;1.65;;;13.50;99.90;;;;;;5023738;28;20045;-63
2022/07/10 02:47:45;;;;;;;4.32;1.40;;;13.40;99.90;;;;;;5023440;28;20087;-62
2022/07/10 02:50:10;;;;;;;2.85;1.60;;;13.40;99.90;;;;;;5025886;28;20112;-63
2022/07/10 02:52:36;;;;;;;6.38;1.70;;;13.40;99.90;;;;;;5028932;28;20072;-63
2022/07/10 02:55:02;;;;;;;3.10;1.67;;;13.40;99.90;;;;;;5033061;28;20470;-63
2022/07/10 02:57:27;;;;;;;6.15;1.90;;;13.40;99.90;;;;;;5029997;28;20139;-63
2022/07/10 02:59:53;;;;;;;4.80;1.90;;;13.40;99.90;;;;;;5030620;28;20030;-64
2022/07/10 03:02:19;;;;;;;4.22;1.83;;;13.40;99.90;;;;;;5037186;28;20382;-63
2022/07/10 03:04:45;;;;;;;4.88;1.60;;;13.30;99.90;;;;;;5032085;28;20029;-64
2022/07/10 03:07:10;;;;;;;3.67;1.55;;;13.30;99.90;;;;;;5034805;28;20033;-63
2022/07/10 03:09:36;;;;;;;5.93;1.65;;;13.30;99.90;;;;;;5039171;28;20029;-63
2022/07/10 03:12:02;;;;;;;6.60;1.70;;;13.40;99.90;;;;;;5017923;28;20109;-62
2022/07/10 03:14:27;;;;;;;3.25;2.33;;;13.40;99.90;;;;;;5047253;28;20032;-63
2022/07/10 03:16:53;;;;;;;5.28;2.00;;;13.30;99.90;;;;;;5035122;28;20037;-63
2022/07/10 03:19:19;;;;;;;1.85;1.42;;;13.30;99.90;;;;;;5037228;28;20050;-63
2022/07/10 03:21:45;;;;;;;4.68;1.80;;;13.20;99.90;;;;;;5026633;28;20066;-64
2022/07/10 03:24:11;;;;;;;5.28;2.03;;;13.20;99.90;;;;;;5027230;28;20171;-63
2022/07/10 03:26:37;;;;;;;5.38;2.65;;;13.10;99.90;;;;;;5030217;28;20029;-63
2022/07/10 03:29:03;;;;;;;3.67;2.63;;;13.10;99.90;;;;;;5033292;28;20041;-63
2022/07/10 03:31:28;;;;;;;2.30;2.08;;;13.10;99.90;;;;;;5030011;28;20121;-62
2022/07/10 03:33:54;;;;;;;4.20;2.67;;;12.90;99.90;;;;;;5034098;28;20033;-64
2022/07/10 03:36:20;;;;;;;3.55;2.33;;;12.80;99.90;;;;;;5038983;28;20064;-64
2022/07/10 03:38:46;;;;;;;4.90;2.03;;;12.90;99.90;;;;;;5031835;28;20022;-64
2022/07/10 03:41:12;;;;;;;3.03;2.53;;;12.90;99.90;;;;;;5037177;28;20040;-58
2022/07/10 03:43:38;;;;;;;4.00;2.60;;;13.00;99.90;;;;;;5048759;28;20036;-64
2022/07/10 03:46:04;;;;;;;4.80;3.10;;;13.00;99.90;;;;;;5038080;28;20040;-63
2022/07/10 03:48:30;;;;;;;4.43;3.20;;;12.80;99.90;;;;;;5031204;28;20030;-63
2022/07/10 03:50:55;;;;;;;4.07;3.58;;;12.70;99.90;;;;;;5029235;28;20037;-64
2022/07/10 03:53:21;;;;;;;4.07;2.60;;;12.70;99.90;;;;;;5050505;28;20029;-64
2022/07/10 03:55:47;;;;;;;3.90;3.50;;;12.80;99.90;;;;;;5039955;28;20033;-64
2022/07/10 03:58:12;;;;;;;4.32;3.17;;;12.70;99.90;;;;;;5031972;28;20481;-64
2022/07/10 04:00:40;;;;;;;5.50;3.47;;;12.70;99.90;;;;;;5024549;28;20038;-64
2022/07/10 04:03:07;;;;;;;3.65;2.40;;;12.70;99.90;;;;;;5030241;28;20030;-64
2022/07/10 04:05:34;;;;;;;3.97;2.55;;;12.60;99.90;;;;;;5034512;28;20504;-63
2022/07/10 04:08:01;;;;;;;3.85;1.98;;;12.60;99.90;;;;;;5025559;28;20029;-64
2022/07/10 04:10:28;;;;;;;3.65;2.58;;;12.60;99.90;;;;;;5041676;28;20029;-63
2022/07/10 04:12:55;;;;;;;5.00;2.47;;;12.70;99.90;;;;;;5045373;28;20098;-64
2022/07/10 04:15:21;;;;;;;3.47;2.85;;;12.70;99.90;;;;;;5040302;28;20053;-63
2022/07/10 04:17:48;;;;;;;6.55;2.33;;;12.80;99.90;;;;;;5046765;28;20389;-62
2022/07/10 04:20:14;;;;;;;3.88;2.40;;;12.80;99.90;;;;;;5039554;28;20061;-62
2022/07/10 04:22:40;;;;;;;5.38;2.15;;;12.80;99.90;;;;;;5029454;28;20465;-64
2022/07/10 04:25:06;;;;;;;5.03;2.53;;;12.80;99.90;;;;;;5032448;28;20076;-64
2022/07/10 04:27:32;;;;;;;4.38;2.22;;;12.70;99.90;;;;;;5029833;28;20055;-64
2022/07/10 04:29:58;;;;;;;6.75;2.90;;;12.70;99.90;;;;;;5039625;28;20151;-64
2022/07/10 04:32:24;;;;;;;2.40;1.67;;;12.70;99.90;;;;;;5034399;28;20539;-63
2022/07/10 04:34:49;;;;;;;4.80;1.95;;;12.80;99.90;;;;;;5035627;28;20072;-64
2022/07/10 04:37:15;;;;;;;3.03;2.00;;;12.80;99.90;;;;;;5037645;28;20034;-64
2022/07/10 04:39:41;;;;;;;3.28;1.80;;;12.80;99.90;;;;;;5033171;28;20075;-64
2022/07/10 04:42:08;;;;;;;5.03;2.83;;;12.80;99.90;;;;;;5030002;28;20036;-63
2022/07/10 04:44:36;;;;;;;4.43;2.28;;;12.80;99.90;;;;;;5033965;28;20124;-63
2022/07/10 04:47:02;;;;;;;4.63;2.72;;;12.90;99.90;;;;;;5039080;28;20032;-63
2022/07/10 04:49:28;;;;;;;3.53;2.22;;;12.90;99.90;;;;;;5034719;28;20056;-64
2022/07/10 04:51:54;;;;;;;2.90;1.73;;;12.90;99.90;;;;;;5027525;28;20469;-63
2022/07/10 04:54:20;;;;;;;6.20;1.70;;;12.90;99.90;;;;;;5032705;28;20044;-64
2022/07/10 04:56:46;;;;;;;3.72;2.05;;;12.90;99.90;;;;;;5033369;28;20026;-64
2022/07/10 04:59:11;;;;;;;4.10;2.03;;;12.90;99.90;;;;;;5031871;28;20393;-64
2022/07/10 05:01:37;;;;;;;4.10;2.35;;;12.90;99.90;;;;;;5025886;28;20106;-63
2022/07/10 05:04:03;;;;;;;15.43;6.15;;;12.90;99.90;;;;;;5028304;28;20026;-63
2022/07/10 05:06:30;;;;;;;4.38;2.47;;;12.90;99.90;;;;;;5031062;28;20044;-63
2022/07/10 05:08:55;;;;;;;3.88;2.70;;;13.00;99.90;;;;;;5038122;28;20532;-63
2022/07/10 05:11:22;;;;;;;6.35;2.45;;;13.00;99.90;;;;;;5033219;28;20120;-63
2022/07/10 05:13:48;;;;;;;6.03;3.30;;;13.00;99.90;;;;;;5034695;28;20025;-62
2022/07/10 05:16:17;;;;;;;4.28;1.80;;;13.10;99.90;;;;;;5029974;28;20033;-62
2022/07/10 05:18:42;;;;;;;6.35;2.60;;;13.10;99.90;;;;;;5027928;28;20049;-62
2022/07/10 05:21:08;;;;;;;4.43;2.47;;;13.20;99.90;;;;;;5033848;28;20029;-62
2022/07/10 05:23:35;;;;;;;2.78;2.10;;;13.20;99.90;;;;;;5033836;28;20029;-62
2022/07/10 05:26:00;;;;;;;4.43;1.80;;;13.20;99.90;;;;;;5030612;28;20512;-63
2022/07/10 05:28:26;;;;;;;4.22;2.13;;;13.20;99.90;;;;;;5041575;28;20021;-63
2022/07/10 05:30:52;;;;;;;7.65;3.10;;;13.20;99.90;;;;;;5029177;28;20033;-63
2022/07/10 05:33:18;;;;;;;5.35;2.20;;;13.30;99.90;;;;;;5030137;28;20037;-64
2022/07/10 05:35:44;;;;;;;7.15;2.30;;;13.40;99.90;;;;;;5032688;28;20025;-64
2022/07/10 05:38:09;;;;;;;6.68;2.50;;;13.50;99.90;;;;;;5038313;28;20469;-64
2022/07/10 05:40:35;;;;;;;5.38;2.60;;;13.60;99.90;;;;;;5030362;28;20116;-64
2022/07/10 05:43:01;;;;;;;5.90;2.58;;;13.60;99.90;;;;;;5028889;28;20486;-64
2022/07/10 05:45:27;;;;;;;4.03;2.22;;;13.60;99.90;;;;;;5036797;28;20039;-64
2022/07/10 05:47:53;;;;;;;8.98;2.28;;;13.60;99.90;;;;;;5030179;28;20026;-62
2022/07/10 05:50:18;;;;;;;7.72;2.70;;;13.70;99.90;;;;;;5035382;28;20028;-64
2022/07/10 05:52:44;;;;;;;9.43;3.88;;;13.70;99.90;;;;;;5030143;28;20108;-64
2022/07/10 05:55:10;;;;;;;4.35;1.98;;;13.80;99.90;;;;;;5036738;28;20033;-63
2022/07/10 05:57:36;;;;;;;5.15;2.10;;;13.90;99.90;;;;;;5035488;28;20026;-63
2022/07/10 06:00:05;;;;;;;4.88;2.65;;;14.00;99.90;;;;;;5028283;28;20029;-63
2022/07/10 06:02:30;;;;;;;8.55;3.20;;;14.10;99.90;;;;;;5030611;28;20039;-63
2022/07/10 06:04:56;;;;;;;4.25;2.60;;;14.10;99.90;;;;;;5028937;28;20037;-64
2022/07/10 06:07:22;;;;;;;5.32;2.47;;;14.20;99.90;;;;;;5026158;28;20033;-63
2022/07/10 06:09:47;;;;;;;5.25;2.65;;;14.20;99.90;;;;;;5032163;28;20115;-63
2022/07/10 06:12:15;;;;;;;5.55;2.50;;;14.20;99.90;;;;;;5029064;28;20440;-58
2022/07/10 06:14:41;;;;;;;7.78;2.67;;;14.20;99.90;;;;;;5026469;28;20029;-64
2022/07/10 06:17:07;;;;;;;4.97;2.42;;;14.30;99.90;;;;;;5029078;28;20029;-63
2022/07/10 06:19:32;;;;;;;6.82;2.97;;;14.30;99.90;;;;;;5029646;28;20052;-63
2022/07/10 06:24:42;;;;;;;6.28;2.80;;;14.40;99.90;;;;;;5022570;28;20538;-62
2022/07/10 06:27:08;;;;;;;5.72;2.67;;;14.40;99.90;;;;;;5028293;28;20166;-63
2022/07/10 06:29:33;;;;;;;8.75;2.80;;;14.50;99.90;;;;;;5025090;28;20149;-63
2022/07/10 06:31:59;;;;;;;4.63;2.38;;;14.60;99.90;;;;;;5032445;28;20501;-62
2022/07/10 06:34:25;;;;;;;6.90;2.60;;;14.70;99.90;;;;;;5032213;28;20104;-63
2022/07/10 06:36:50;;;;;;;5.40;2.45;;;14.80;99.90;;;;;;5040261;28;20105;-64
2022/07/10 06:39:16;;;;;;;5.88;2.38;;;14.80;99.90;;;;;;5037027;28;20507;-64
2022/07/10 06:41:42;;;;;;;5.13;2.97;;;14.90;99.90;;;;;;5035220;28;20052;-61
2022/07/10 06:44:07;;;;;;;4.25;2.33;;;15.00;99.90;;;;;;5028452;28;20025;-62
2022/07/10 06:46:33;;;;;;;4.07;2.30;;;15.00;99.90;;;;;;5033100;28;20033;-63
2022/07/10 06:48:59;;;;;;;4.10;2.35;;;15.10;99.90;;;;;;5027652;28;20025;-63
2022/07/10 06:51:25;;;;;;;6.40;2.55;;;15.10;99.90;;;;;;5028417;28;20084;-63
2022/07/10 06:53:51;;;;;;;7.03;2.28;;;15.20;99.90;;;;;;5030084;28;20399;-63
2022/07/10 06:56:17;;;;;;;5.57;2.03;;;15.30;99.90;;;;;;5028523;28;20033;-62
2022/07/10 06:58:43;;;;;;;13.05;2.70;;;15.30;99.90;;;;;;5027373;28;20404;-63
2022/07/10 07:01:09;;;;;;;3.75;2.53;;;15.40;99.90;;;;;;5033802;28;20473;-63
2022/07/10 07:03:34;;;;;;;3.92;1.77;;;15.40;99.90;;;;;;5035313;28;20067;-63
2022/07/10 07:06:00;;;;;;;3.45;1.40;;;15.40;99.90;;;;;;5019510;28;20481;-63
2022/07/10 07:08:28;;;;;;;5.70;1.73;;;15.50;99.90;;;;;;5036272;28;20535;-62
2022/07/10 07:10:54;;;;;;;4.47;1.95;;;15.60;99.90;;;;;;5031696;28;20055;-63
2022/07/10 07:13:19;;;;;;;4.88;1.58;;;15.70;99.90;;;;;;5034730;28;20533;-62
2022/07/10 07:15:58;;;;;;;6.45;1.90;;;15.80;99.90;;;;;;5033213;28;20029;-63
2022/07/10 07:18:31;;;;;;;5.88;1.60;;;15.90;99.90;;;;;;5029065;28;20037;-64
2022/07/10 07:23:45;;;;;;;7.05;1.83;;;16.10;99.90;;;;;;5034234;28;20036;-64
2022/07/10 07:26:11;;;;;;;2.67;1.42;;;16.20;99.90;;;;;;5036168;28;20037;-57
2022/07/10 07:28:37;;;;;;;6.95;2.72;;;16.30;99.90;;;;;;5041253;28;20025;-64
2022/07/10 07:31:03;;;;;;;7.05;1.70;;;16.40;99.90;;;;;;5033966;28;20028;-65
2022/07/10 07:33:29;;;;;;;6.03;1.80;;;16.40;99.90;;;;;;5033164;28;20036;-64
2022/07/10 07:35:54;;;;;;;3.17;1.38;;;16.40;99.90;;;;;;5034204;28;20119;-64
2022/07/10 07:38:20;;;;;;;3.10;1.48;;;16.50;99.90;;;;;;5035501;28;20098;-64
2022/07/10 07:40:46;;;;;;;3.42;1.40;;;16.50;99.90;;;;;;5038724;28;20057;-64
2022/07/10 07:43:12;;;;;;;4.13;1.50;;;16.60;99.90;;;;;;5033076;28;20083;-64
2022/07/10 07:45:37;;;;;;;4.72;1.38;;;16.70;99.90;;;;;;5039238;28;20050;-63
2022/07/10 07:48:03;;;;;;;5.07;1.17;;;16.80;99.90;;;;;;5031188;28;20051;-64
2022/07/10 07:50:34;;;;;;;4.38;1.02;;;17.00;99.90;;;;;;5034979;28;20124;-64
2022/07/10 07:53:01;;;;;;;5.20;1.33;;;17.00;99.90;;;;;;5035754;28;20393;-63
2022/07/10 07:55:28;;;;;;;3.38;1.40;;;17.10;99.90;;;;;;5033404;28;20102;-64
2022/07/10 07:57:55;;;;;;;1.83;1.02;;;17.20;99.90;;;;;;5025815;28;20112;-64
2022/07/10 08:00:22;;;;;;;4.25;1.35;;;17.30;99.90;;;;;;5032394;28;20074;-66
2022/07/10 08:02:49;;;;;;;3.95;1.40;;;17.40;99.90;;;;;;5026115;28;20052;-65
2022/07/10 08:05:15;;;;;;;2.63;0.93;;;17.40;99.90;;;;;;5021608;28;20026;-66
2022/07/10 08:07:43;;;;;;;4.70;1.33;;;17.50;99.90;;;;;;5033234;28;20116;-65
2022/07/10 08:10:14;;;;;;;5.78;1.35;;;17.60;99.90;;;;;;5025297;28;20076;-65
2022/07/10 08:12:41;;;;;;;6.63;1.38;;;17.80;99.90;;;;;;5031223;28;20124;-65
2022/07/10 08:15:09;;;;;;;4.18;1.27;;;17.90;99.90;;;;;;5030972;28;20033;-65
2022/07/10 08:17:35;;;;;;;2.17;0.80;;;18.10;99.90;;;;;;5032865;28;20087;-65
2022/07/10 08:20:01;;;;;;;2.25;1.10;;;18.30;99.90;;;;;;5023165;28;20865;-64
2022/07/10 08:22:27;;;;;;;5.50;0.80;;;18.30;99.90;;;;;;5024903;28;20726;-64
2022/07/10 08:24:52;;;;;;;4.28;1.20;;;18.30;99.90;;;;;;5038639;28;20043;-64
2022/07/10 08:27:18;;;;;;;2.55;1.10;;;18.40;99.90;;;;;;5019551;28;20046;-64
2022/07/10 08:29:44;;;;;;;3.65;1.00;;;18.50;99.90;;;;;;5030292;28;20032;-64
2022/07/10 08:32:10;;;;;;;4.47;0.80;;;18.70;99.90;;;;;;5023951;28;20101;-64
2022/07/10 08:34:36;;;;;;;4.05;0.98;;;18.70;99.90;;;;;;5028884;28;20385;-64
2022/07/10 08:37:03;;;;;;;1.58;1.00;;;18.90;99.90;;;;;;5016827;28;20041;-64
2022/07/10 08:39:28;;;;;;;3.45;0.93;;;19.10;99.90;;;;;;5016098;28;20052;-63
2022/07/10 08:41:54;;;;;;;2.58;1.63;;;19.20;99.90;;;;;;5025114;28;20478;-64
2022/07/10 08:44:21;;;;;;;5.78;1.52;;;19.30;99.90;;;;;;5022260;28;20069;-64
2022/07/10 08:46:47;;;;;;;1.98;1.10;;;19.40;99.90;;;;;;5022344;28;20116;-64
2022/07/10 08:49:15;;;;;;;5.60;1.58;;;19.50;99.90;;;;;;5027819;28;20067;-64
2022/07/10 08:51:53;;;;;;;3.13;1.25;;;19.60;99.90;;;;;;5030159;28;20370;-64
2022/07/10 08:54:20;;;;;;;5.38;1.08;;;19.70;99.90;;;;;;5031895;28;20395;-65
2022/07/10 08:56:47;;;;;;;4.47;1.20;;;19.80;99.90;;;;;;5036963;28;20025;-64
2022/07/10 08:59:14;;;;;;;1.90;0.95;;;20.00;99.90;;;;;;5033058;28;20128;-65
2022/07/10 09:01:40;;;;;;;2.15;0.95;;;20.20;99.90;;;;;;5038558;28;20040;-64
2022/07/10 09:04:06;;;;;;;4.65;2.10;;;20.20;99.90;;;;;;5032623;28;20029;-65
2022/07/10 09:06:31;;;;;;;2.75;1.13;;;20.20;99.90;;;;;;5034731;28;20041;-66
2022/07/10 09:09:05;;;;;;;4.50;1.17;;;20.20;99.90;;;;;;5031884;28;20026;-65
2022/07/10 09:11:32;;;;;;;2.60;1.20;;;20.40;99.90;;;;;;5031796;28;20114;-65
2022/07/10 09:14:00;;;;;;;1.95;0.93;;;20.60;99.90;;;;;;5018527;28;20053;-65
2022/07/10 09:16:30;;;;;;;5.40;1.10;;;20.70;99.90;;;;;;5031994;28;20041;-65
2022/07/10 09:18:56;;;;;;;2.45;1.00;;;20.70;99.90;;;;;;5023993;28;20059;-68
2022/07/10 09:21:24;;;;;;;2.47;0.95;;;20.90;99.90;;;;;;5027151;28;20045;-64
2022/07/10 09:23:50;;;;;;;1.52;0.70;;;21.00;99.90;;;;;;5021787;28;20129;-63
2022/07/10 09:26:18;;;;;;;2.17;0.98;;;21.00;99.90;;;;;;5030695;28;20049;-64
2022/07/10 09:28:43;;;;;;;4.22;1.55;;;21.10;99.90;;;;;;5027651;28;20029;-65
2022/07/10 09:31:09;;;;;;;3.58;1.50;;;21.20;99.90;;;;;;5037826;28;20048;-65
2022/07/10 09:33:36;;;;;;;3.50;0.90;;;21.40;99.90;;;;;;5029475;28;20085;-65
2022/07/10 09:36:10;;;;;;;6.60;1.20;;;21.50;99.90;;;;;;5013979;28;20034;-64
2022/07/10 09:38:46;;;;;;;4.32;0.80;;;21.50;99.90;;;;;;5026772;28;20083;-65
2022/07/10 09:41:14;;;;;;;5.00;0.73;;;21.60;99.90;;;;;;5024804;28;20036;-64
2022/07/10 09:44:03;;;;;;;3.60;0.80;;;21.60;99.90;;;;;;5034733;28;20032;-64
2022/07/10 09:46:32;;;;;;;4.18;0.80;;;21.60;99.90;;;;;;5022099;28;20069;-64
2022/07/10 09:49:11;;;;;;;2.53;0.75;;;21.60;99.90;;;;;;5039825;28;20025;-64
2022/07/10 09:51:41;;;;;;;2.50;0.90;;;21.50;99.90;;;;;;5027909;28;20120;-64
2022/07/10 09:54:09;;;;;;;2.00;0.65;;;21.50;99.90;;;;;;5038454;28;20371;-64
2022/07/10 09:56:51;;;;;;;3.60;0.70;;;21.50;99.90;;;;;;5026977;28;20033;-64
2022/07/10 09:59:18;;;;;;;3.28;0.98;;;21.60;99.90;;;;;;5030982;28;20609;-65
2022/07/10 10:01:52;;;;;;;2.13;0.70;;;21.80;99.90;;;;;;5023687;28;20033;-65
2022/07/10 10:04:25;;;;;;;4.88;1.40;;;22.00;99.90;;;;;;5032271;28;20138;-65
2022/07/10 10:06:56;;;;;;;2.17;0.73;;;22.20;99.90;;;;;;5035372;28;20038;-65
2022/07/10 10:09:32;;;;;;;2.53;0.57;;;22.30;99.90;;;;;;5026887;28;20078;-65
2022/07/10 10:12:07;;;;;;;1.65;0.57;;;22.40;99.90;;;;;;5028098;28;20037;-65
2022/07/10 10:14:34;;;;;;;5.97;1.10;;;22.40;99.90;;;;;;5029157;28;20029;-65
2022/07/10 10:17:00;;;;;;;1.65;0.88;;;22.50;99.90;;;;;;5034289;28;20552;-64
2022/07/10 10:22:13;;;;;;;1.83;0.90;;;22.60;99.90;;;;;;5037581;28;20080;-65
2022/07/10 10:24:41;;;;;;;3.10;0.73;;;22.60;99.90;;;;;;5045822;28;20465;-66
2022/07/10 10:27:08;;;;;;;1.90;0.70;;;22.90;99.90;;;;;;5032718;28;20071;-65
2022/07/10 10:29:37;;;;;;;1.50;0.70;;;22.90;99.00;;;;;;5029378;28;20355;-65
2022/07/10 10:32:03;;;;;;;2.00;0.60;;;22.80;98.60;;;;;;5030671;28;20493;-65
2022/07/10 10:34:42;;;;;;;2.42;0.55;;;22.80;99.10;;;;;;5037067;28;20501;-65
2022/07/10 10:37:27;;;;;;;2.65;0.50;;;22.80;99.10;;;;;;5028738;28;20025;-64
2022/07/10 10:39:54;;;;;;;2.22;0.75;;;23.10;98.70;;;;;;5026946;28;20032;-64
2022/07/10 10:42:55;;;;;;;6.00;1.38;;;23.00;98.50;;;;;;5033234;28;20025;-63
2022/07/10 10:45:35;;;;;;;4.45;0.80;;;23.30;98.00;;;;;;5033905;28;20480;-65
2022/07/10 10:48:12;;;;;;;1.23;0.45;;;23.30;98.00;;;;;;5025526;28;20125;-65
2022/07/10 10:50:49;;;;;;;1.77;0.60;;;23.40;97.30;;;;;;5027918;28;20452;-65
2022/07/10 10:53:26;;;;;;;3.10;0.77;;;23.40;96.70;;;;;;5031619;28;20017;-65
2022/07/10 10:56:03;;;;;;;1.30;0.65;;;23.20;96.50;;;;;;5029314;28;20028;-65
2022/07/10 10:58:40;;;;;;;3.22;0.70;;;23.40;96.50;;;;;;5030775;28;20037;-65
2022/07/10 11:01:21;;;;;;;2.08;0.80;;;23.50;96.40;;;;;;5034462;28;20033;-65
2022/07/10 11:04:05;;;;;;;3.92;0.88;;;23.70;95.80;;;;;;5030887;28;20029;-64
2022/07/10 11:06:40;;;;;;;3.72;0.70;;;23.70;95.30;;;;;;5035673;28;20041;-65
2022/07/10 11:09:29;;;;;;;1.30;0.60;;;23.90;95.50;;;;;;5034092;28;20036;-64
2022/07/10 11:11:59;;;;;;;1.20;0.70;;;24.10;94.80;;;;;;5028298;28;20029;-64
2022/07/10 11:14:28;;;;;;;2.45;0.50;;;24.50;93.00;;;;;;5036406;28;20034;-64
2022/07/10 11:16:55;;;;;;;1.33;0.60;;;24.70;92.60;;;;;;5040561;28;20116;-64
2022/07/10 11:19:26;;;;;;;3.80;0.43;;;24.90;92.30;;;;;;5037819;28;20060;-64
2022/07/10 11:22:14;;;;;;;2.25;0.73;;;25.00;91.70;;;;;;5039391;28;20029;-63
2022/07/10 11:24:54;;;;;;;3.55;1.45;;;24.70;91.40;;;;;;5037759;28;20026;-63
2022/07/10 11:27:47;;;;;;;2.13;1.02;;;25.10;90.80;;;;;;5036351;28;20052;-64
2022/07/10 11:30:13;;;;;;;2.15;0.77;;;25.40;90.10;;;;;;5044723;28;20029;-64
2022/07/10 11:32:39;;;;;;;2.55;0.98;;;25.50;89.90;;;;;;5043783;28;20512;-65
2022/07/10 11:35:14;;;;;;;2.10;0.65;;;25.50;86.60;;;;;;5040183;28;20033;-64
2022/07/10 11:37:52;;;;;;;3.25;0.80;;;26.00;85.60;;;;;;5025063;28;20031;-64
2022/07/10 11:40:19;;;;;;;1.05;0.50;;;25.90;85.50;;;;;;5032646;28;20111;-64
2022/07/10 11:42:52;;;;;;;1.63;0.80;;;26.30;83.40;;;;;;5040671;28;20038;-64
2022/07/10 11:45:44;;;;;;;1.88;0.95;;;26.40;80.00;;;;;;5044735;28;20037;-64
2022/07/10 11:48:21;;;;;;;3.00;0.60;;;26.90;76.10;;;;;;5026522;28;20038;-64
2022/07/10 11:50:47;;;;;;;5.53;0.93;;;27.10;76.90;;;;;;5028751;28;20029;-63
2022/07/10 11:53:13;;;;;;;3.83;0.80;;;27.10;75.70;;;;;;5035911;28;20057;-64
2022/07/10 11:55:40;;;;;;;2.85;0.60;;;27.40;75.10;;;;;;5038770;28;20094;-63
2022/07/10 11:58:13;;;;;;;2.20;1.10;;;27.30;74.80;;;;;;5035901;28;20021;-64
2022/07/10 12:00:39;;;;;;;3.95;1.05;;;27.60;75.00;;;;;;5034688;28;20121;-64
2022/07/10 12:03:21;;;;;;;1.50;0.50;;;27.50;74.70;;;;;;5041065;28;20521;-64
2022/07/10 12:05:50;;;;;;;;;;;27.50;71.10;;;;;;5037674;28;20033;-63
2022/07/10 12:08:16;;;;;;;2.58;0.93;;;27.40;70.90;;;;;;5043358;28;20288;-63
2022/07/10 12:10:43;;;;;;;4.70;0.70;;;27.50;72.60;;;;;;5044850;28;20028;-63
2022/07/10 12:13:13;;;;;;;1.20;0.57;;;27.80;72.90;;;;;;5030860;28;20029;-63
2022/07/10 12:15:45;;;;;;;2.37;0.60;;;28.00;68.70;;;;;;5034929;28;20168;-64
2022/07/10 12:18:21;;;;;;;1.70;0.52;;;27.60;69.80;;;;;;5044364;28;20341;-64
2022/07/10 12:20:48;;;;;;;2.03;0.57;;;27.50;70.30;;;;;;5039834;28;20401;-64
2022/07/10 12:23:18;;;;;;;1.80;0.70;;;27.60;69.70;;;;;;5031899;28;20090;-64
2022/07/10 12:25:49;;;;;;;4.55;0.70;;;27.80;68.60;;;;;;5041148;28;20037;-63
2022/07/10 12:28:15;;;;;;;0.93;0.60;;;27.90;67.70;;;;;;5040623;28;20473;-64
2022/07/10 12:30:45;;;;;;;1.40;0.68;;;28.10;65.50;;;;;;5037053;28;20026;-64
2022/07/10 12:33:17;;;;;;;1.40;0.73;;;28.40;64.70;;;;;;5033426;28;20049;-63
2022/07/10 12:35:56;;;;;;;1.50;0.70;;;28.60;60.00;;;;;;5038643;28;20033;-61
2022/07/10 12:38:27;;;;;;;1.38;0.55;;;28.70;58.20;;;;;;5034329;28;20037;-69
2022/07/10 12:41:08;;;;;;;2.03;0.70;;;28.80;59.70;;;;;;5038284;28;20025;-64
2022/07/10 12:43:35;;;;;;;1.08;0.50;;;29.10;57.80;;;;;;5043715;28;20385;-63
2022/07/10 12:46:14;;;;;;;1.20;0.60;;;29.40;57.20;;;;;;5028167;28;20132;-63
2022/07/10 12:48:41;;;;;;;3.85;0.90;;;29.60;55.40;;;;;;5041446;28;20034;-62
2022/07/10 12:51:21;;;;;;;1.13;0.80;;;29.40;56.10;;;;;;5037199;28;20385;-63
2022/07/10 12:53:47;;;;;;;0.70;0.60;;;29.50;55.30;;;;;;5037465;28;20040;-62
2022/07/10 12:56:30;;;;;;;1.77;0.43;;;29.70;53.10;;;;;;5039868;28;20017;-62
2022/07/10 12:58:58;;;;;;;2.08;0.77;;;29.60;52.90;;;;;;5037192;28;20600;-62
2022/07/10 13:01:26;;;;;;;3.80;0.60;;;29.90;53.20;;;;;;5043846;28;20033;-62
2022/07/10 13:04:01;;;;;;;3.50;0.70;;;29.80;52.80;;;;;;5038358;28;20029;-62